createdAt,value
2019-01-31T00:01:40.275Z,98.50
2019-01-31T00:04:25.923Z,98.82
2019-01-31T00:07:12.952Z,98.70
2019-01-31T00:09:58.808Z,98.70
2019-01-31T00:12:57.687Z,98.62
2019-01-31T00:15:34.085Z,99.01
2019-01-31T00:18:04.808Z,98.52
2019-01-31T00:21:07.009Z,98.66
2019-01-31T00:23:39.163Z,98.73
2019-01-31T00:26:24.348Z,98.77
2019-01-31T00:29:23.373Z,98.75
2019-01-31T00:32:19.582Z,98.57
2019-01-31T00:35:12.848Z,98.95
2019-01-31T00:37:43.904Z,98.59
2019-01-31T00:40:46.833Z,98.61
2019-01-31T00:43:18.719Z,98.47
2019-01-31T00:45:59.171Z,98.27
2019-01-31T00:48:44.941Z,98.32
2019-01-31T00:51:19.194Z,98.58
2019-01-31T00:53:59.253Z,98.49
2019-01-31T00:56:42.462Z,98.51
2019-01-31T00:59:45.370Z,98.64
2019-01-31T01:02:31.264Z,98.36
2019-01-31T01:05:24.617Z,98.33
2019-01-31T01:08:08.552Z,98.37
2019-01-31T01:11:04.773Z,98.51
2019-01-31T01:13:47.964Z,98.71
2019-01-31T01:16:34.004Z,98.69
2019-01-31T01:19:13.752Z,98.53
2019-01-31T01:22:00.779Z,98.92
2019-01-31T01:24:35.277Z,98.83
2019-01-31T01:27:19.847Z,98.46
2019-01-31T01:30:05.604Z,98.40
2019-01-31T01:33:02.085Z,98.22
2019-01-31T01:35:36.268Z,98.30
2019-01-31T01:38:30.877Z,98.39
2019-01-31T01:41:16.811Z,98.42
2019-01-31T01:43:59.079Z,98.40
2019-01-31T01:46:34.291Z,98.38
2019-01-31T01:49:12.064Z,98.06
2019-01-31T01:51:59.085Z,98.09
2019-01-31T01:54:52.304Z,97.95
2019-01-31T01:57:42.486Z,97.94
2019-01-31T02:00:19.549Z,98.22
2019-01-31T02:02:58.163Z,98.04
2019-01-31T02:05:48.263Z,98.16
2019-01-31T02:08:34.376Z,98.11
2019-01-31T02:11:24.297Z,98.12
2019-01-31T02:14:20.257Z,98.21
2019-01-31T02:17:07.285Z,98.25
2019-01-31T02:19:54.381Z,98.39
2019-01-31T02:22:44.576Z,98.34
2019-01-31T02:25:18.369Z,98.18
2019-01-31T02:28:17.603Z,98.35
2019-01-31T02:30:55.170Z,98.49
2019-01-31T02:33:37.775Z,98.29
2019-01-31T02:36:24.799Z,97.99
2019-01-31T02:39:08.330Z,97.90
2019-01-31T02:42:01.404Z,98.05
2019-01-31T02:44:47.414Z,98.26
2019-01-31T02:47:37.841Z,98.81
2019-01-31T02:50:24.873Z,98.34
2019-01-31T02:53:27.425Z,98.74
2019-01-31T02:56:33.125Z,98.61
2019-01-31T02:59:05.680Z,98.54
2019-01-31T03:01:37.355Z,98.34
2019-01-31T03:04:30.227Z,98.24
2019-01-31T03:07:07.909Z,98.24
2019-01-31T03:09:58.063Z,98.41
2019-01-31T03:12:39.051Z,98.64
2019-01-31T03:15:19.116Z,98.84
2019-01-31T03:17:54.454Z,99.12
2019-01-31T03:20:50.700Z,98.87
2019-01-31T03:23:41.074Z,98.54
2019-01-31T03:26:27.305Z,98.42
2019-01-31T03:29:23.517Z,98.67
2019-01-31T03:32:01.733Z,98.53
2019-01-31T03:34:50.029Z,98.77
2019-01-31T03:37:27.401Z,99.07
2019-01-31T03:40:32.889Z,99.04
2019-01-31T03:43:16.287Z,98.92
2019-01-31T03:46:02.225Z,99.15
2019-01-31T03:48:48.269Z,99.37
2019-01-31T03:51:38.477Z,99.45
2019-01-31T03:54:15.389Z,99.32
2019-01-31T03:56:51.921Z,99.30
2019-01-31T03:59:39.130Z,99.17
2019-01-31T04:02:35.026Z,99.30
2019-01-31T04:05:06.821Z,99.32
2019-01-31T04:07:34.855Z,99.68
2019-01-31T04:10:03.234Z,99.75
2019-01-31T04:12:33.074Z,99.80
2019-01-31T04:15:00.995Z,99.80
2019-01-31T04:17:28.933Z,99.70
2019-01-31T04:19:57.010Z,99.79
2019-01-31T04:22:24.854Z,99.71
2019-01-31T04:24:52.640Z,100.00
2019-01-31T04:27:20.474Z,99.70
2019-01-31T04:29:48.233Z,99.83
2019-01-31T04:32:16.233Z,99.92
2019-01-31T04:34:43.985Z,99.78
2019-01-31T04:37:11.840Z,100.00
2019-01-31T04:39:39.608Z,99.87
2019-01-31T04:42:07.470Z,99.93
2019-01-31T04:44:35.247Z,99.71
2019-01-31T04:47:03.089Z,99.16
2019-01-31T04:49:30.847Z,98.87
2019-01-31T04:51:58.660Z,98.91
2019-01-31T04:54:26.496Z,98.59
2019-01-31T04:56:54.270Z,98.59
2019-01-31T04:59:22.134Z,98.47
2019-01-31T05:01:50.020Z,98.65
2019-01-31T05:04:17.787Z,98.17
2019-01-31T05:06:45.552Z,98.27
2019-01-31T05:09:13.304Z,97.58
2019-01-31T05:11:41.113Z,97.87
2019-01-31T05:14:08.945Z,98.24
2019-01-31T05:16:36.709Z,98.09
2019-01-31T05:19:04.607Z,97.79
2019-01-31T05:21:32.718Z,98.16
2019-01-31T05:24:02.943Z,98.74
2019-01-31T05:26:31.260Z,98.42
2019-01-31T05:29:00.026Z,98.38
2019-01-31T05:31:29.671Z,98.40
2019-01-31T05:33:57.688Z,97.73
2019-01-31T05:36:25.438Z,97.97
2019-01-31T05:38:53.290Z,97.86
2019-01-31T05:41:21.061Z,97.90
2019-01-31T05:43:48.902Z,97.93
2019-01-31T05:46:18.396Z,98.10
2019-01-31T05:48:47.461Z,98.06
2019-01-31T05:51:16.527Z,98.28
2019-01-31T05:53:46.066Z,97.87
2019-01-31T05:56:14.355Z,97.78
2019-01-31T05:58:42.133Z,97.16
2019-01-31T06:01:10.046Z,96.42
2019-01-31T06:03:37.818Z,96.90
2019-01-31T06:06:06.029Z,96.93
2019-01-31T06:08:33.777Z,96.98
2019-01-31T06:11:07.679Z,97.26
2019-01-31T06:13:32.735Z,96.84
2019-01-31T06:16:01.628Z,96.46
2019-01-31T06:18:31.102Z,96.95
2019-01-31T06:20:59.502Z,97.23
2019-01-31T06:23:27.349Z,97.74
2019-01-31T06:25:55.473Z,97.22
2019-01-31T06:28:23.223Z,97.16
2019-01-31T06:30:50.997Z,96.45
2019-01-31T06:33:19.002Z,96.58
2019-01-31T06:35:47.698Z,96.34
2019-01-31T06:38:16.749Z,96.30
2019-01-31T06:40:45.893Z,96.47
2019-01-31T06:43:14.861Z,96.41
2019-01-31T06:45:42.705Z,96.07
2019-01-31T06:48:10.473Z,96.00
2019-01-31T06:50:38.229Z,95.91
2019-01-31T06:53:06.141Z,95.64
2019-01-31T06:55:33.884Z,96.26
2019-01-31T06:58:01.924Z,95.95
2019-01-31T07:00:29.985Z,96.08
2019-01-31T07:02:57.839Z,95.96
2019-01-31T07:05:25.579Z,96.10
2019-01-31T07:07:53.564Z,96.16
2019-01-31T07:10:22.695Z,96.69
2019-01-31T07:12:50.448Z,96.76
2019-01-31T07:15:18.239Z,96.31
2019-01-31T07:17:46.068Z,96.81
2019-01-31T07:20:14.354Z,95.66
2019-01-31T07:22:42.461Z,94.99
2019-01-31T07:25:12.071Z,94.86
2019-01-31T07:27:39.912Z,95.27
2019-01-31T07:30:08.521Z,95.63
2019-01-31T07:32:36.264Z,94.78
2019-01-31T07:35:04.769Z,94.05
2019-01-31T07:37:33.449Z,93.46
2019-01-31T07:40:01.506Z,93.58
2019-01-31T07:42:29.359Z,91.53
2019-01-31T07:44:57.545Z,92.04
2019-01-31T07:47:25.304Z,93.06
2019-01-31T07:49:53.051Z,93.80
2019-01-31T07:52:20.936Z,93.28
2019-01-31T07:54:48.697Z,92.92
2019-01-31T07:57:16.769Z,93.37
2019-01-31T07:59:44.572Z,93.24
2019-01-31T08:02:12.369Z,93.75
2019-01-31T08:04:40.174Z,94.28
2019-01-31T08:07:08.037Z,93.25
2019-01-31T08:09:35.810Z,91.96
2019-01-31T08:12:03.557Z,91.81
2019-01-31T08:14:31.381Z,91.42
2019-01-31T08:16:59.151Z,92.36
2019-01-31T08:19:26.900Z,92.76
2019-01-31T08:21:54.815Z,92.74
2019-01-31T08:24:22.940Z,92.79
2019-01-31T08:26:50.694Z,93.00
2019-01-31T08:29:18.488Z,92.40
2019-01-31T08:31:46.248Z,91.44
2019-01-31T08:34:14.020Z,90.91
2019-01-31T08:36:41.906Z,89.63
2019-01-31T08:39:09.825Z,89.14
2019-01-31T08:41:37.637Z,88.30
2019-01-31T08:44:06.189Z,87.76
2019-01-31T08:46:33.969Z,87.75
2019-01-31T08:49:01.718Z,88.02
2019-01-31T08:51:29.564Z,87.08
2019-01-31T08:53:57.304Z,86.94
2019-01-31T08:56:25.368Z,86.30
2019-01-31T08:58:53.160Z,87.53
2019-01-31T09:01:20.996Z,87.30
2019-01-31T09:03:48.779Z,87.88
2019-01-31T09:06:16.570Z,87.06
2019-01-31T09:08:44.322Z,85.99
2019-01-31T09:11:12.090Z,85.26
2019-01-31T09:13:40.724Z,85.66
2019-01-31T09:16:08.785Z,85.33
2019-01-31T09:18:36.547Z,85.28
2019-01-31T09:21:16.210Z,85.06
2019-01-31T09:23:59.137Z,85.81
2019-01-31T09:26:34.780Z,87.05
2019-01-31T09:29:14.512Z,87.13
2019-01-31T09:32:00.414Z,84.63
2019-01-31T09:34:34.819Z,85.31
2019-01-31T09:37:15.939Z,84.87
2019-01-31T09:39:51.017Z,84.45
2019-01-31T09:42:26.699Z,85.79
2019-01-31T09:45:23.349Z,84.92
2019-01-31T09:48:12.468Z,85.36
2019-01-31T09:50:59.599Z,84.20
2019-01-31T09:53:36.715Z,84.70
2019-01-31T09:56:22.914Z,83.35
2019-01-31T09:59:09.938Z,81.74
2019-01-31T10:01:52.637Z,82.19
2019-01-31T10:04:52.213Z,83.51
2019-01-31T10:07:38.064Z,83.86
2019-01-31T10:10:19.655Z,83.00
2019-01-31T10:13:18.988Z,83.71
2019-01-31T10:16:12.078Z,82.08
2019-01-31T10:19:05.050Z,81.24
2019-01-31T10:22:04.446Z,81.76
2019-01-31T10:24:37.036Z,80.31
2019-01-31T10:27:33.937Z,81.45
2019-01-31T10:30:19.881Z,82.43
2019-01-31T10:32:51.729Z,80.44
2019-01-31T10:35:47.601Z,82.44
2019-01-31T10:38:28.668Z,82.25
2019-01-31T10:41:03.093Z,82.13
2019-01-31T10:43:34.485Z,80.10
2019-01-31T10:46:24.289Z,79.80
2019-01-31T10:49:11.352Z,82.32
2019-01-31T10:52:07.527Z,84.33
2019-01-31T10:54:54.567Z,82.85
2019-01-31T10:57:40.396Z,83.18
2019-01-31T11:00:18.532Z,81.80
2019-01-31T11:03:04.661Z,80.95
2019-01-31T11:05:54.761Z,80.92
2019-01-31T11:08:38.331Z,80.44
2019-01-31T11:11:09.153Z,82.97
2019-01-31T11:14:11.290Z,81.31
2019-01-31T11:17:04.572Z,81.01
2019-01-31T11:19:58.131Z,80.66
2019-01-31T11:22:49.552Z,81.03
2019-01-31T11:25:28.383Z,80.25
2019-01-31T11:28:15.430Z,79.73
2019-01-31T11:31:01.631Z,77.61
2019-01-31T11:33:47.712Z,76.75
2019-01-31T11:36:27.580Z,76.88
2019-01-31T11:39:15.418Z,77.29
2019-01-31T11:41:47.186Z,77.09
2019-01-31T11:44:33.277Z,76.61
2019-01-31T11:47:30.392Z,76.61
2019-01-31T11:50:09.079Z,74.63
2019-01-31T11:53:02.425Z,75.16
2019-01-31T11:55:36.059Z,75.43
2019-01-31T11:58:11.585Z,76.73
2019-01-31T12:00:39.516Z,77.02
2019-01-31T12:03:07.291Z,75.98
2019-01-31T12:05:35.999Z,73.25
2019-01-31T12:08:04.353Z,76.10
2019-01-31T12:10:32.453Z,76.61
2019-01-31T12:13:00.281Z,78.58
2019-01-31T12:15:28.039Z,78.70
2019-01-31T12:17:55.821Z,80.16
2019-01-31T12:20:23.601Z,79.54
2019-01-31T12:22:51.427Z,78.25
2019-01-31T12:25:19.365Z,80.42
2019-01-31T12:27:47.138Z,81.25
2019-01-31T12:30:19.479Z,81.25
2019-01-31T12:32:48.805Z,83.38
2019-01-31T12:35:16.569Z,81.78
2019-01-31T12:37:44.321Z,81.55
2019-01-31T12:40:15.934Z,83.20
2019-01-31T12:42:43.700Z,84.30
2019-01-31T12:45:12.826Z,85.01
2019-01-31T12:47:40.795Z,81.51
2019-01-31T12:50:09.891Z,81.21
2019-01-31T12:52:37.742Z,82.53
2019-01-31T12:55:06.568Z,81.91
2019-01-31T12:57:34.406Z,82.67
2019-01-31T13:00:02.157Z,80.93
2019-01-31T13:02:29.912Z,81.55
2019-01-31T13:04:57.683Z,83.55
2019-01-31T13:07:25.458Z,82.20
2019-01-31T13:09:53.536Z,81.55
2019-01-31T13:12:21.693Z,82.68
2019-01-31T13:14:49.458Z,84.22
2019-01-31T13:17:17.813Z,85.64
2019-01-31T13:19:45.592Z,85.83
2019-01-31T13:22:13.351Z,85.88
2019-01-31T13:24:41.114Z,86.25
2019-01-31T13:27:08.966Z,86.80
2019-01-31T13:29:36.717Z,86.56
2019-01-31T13:32:04.585Z,86.75
2019-01-31T13:34:32.340Z,86.11
2019-01-31T13:37:00.183Z,87.69
2019-01-31T13:39:27.942Z,85.61
2019-01-31T13:41:55.703Z,85.17
2019-01-31T13:44:23.582Z,85.37
2019-01-31T13:46:51.471Z,84.91
2019-01-31T13:49:19.489Z,84.45
2019-01-31T13:51:47.271Z,86.69
2019-01-31T13:54:15.113Z,88.10
2019-01-31T13:56:45.538Z,88.31
2019-01-31T13:59:12.502Z,88.00
2019-01-31T14:01:40.256Z,87.99
2019-01-31T14:04:08.025Z,88.46
2019-01-31T14:06:35.781Z,88.39
2019-01-31T14:09:05.332Z,88.97
2019-01-31T14:11:33.089Z,89.29
2019-01-31T14:14:08.749Z,89.38
2019-01-31T14:16:30.421Z,90.19
2019-01-31T14:18:58.193Z,90.09
2019-01-31T14:21:26.090Z,89.82
2019-01-31T14:23:53.862Z,89.71
2019-01-31T14:26:21.618Z,90.02
2019-01-31T14:28:49.386Z,91.92
